Time;durP1;ratioP1;P1;durP2;ratioP2;P2;SDS_P1;SDS_P2;PMS_P1;PMS_P2;Temp;Humidity;BMP_temperature;BMP_pressure;BME280_temperature;BME280_humidity;BME280_pressure;Samples;Min_cycle;Max_cycle;Signal;HPM_P1;HPM_P2
2022/06/19 00:01:50;;;;;;;3.67;3.40;;;;;;;;;;5134286;28;20444;-65
2022/06/19 00:04:17;;;;;;;5.27;3.07;;;;;;;;;;5134226;28;20863;-65
2022/06/19 00:06:45;;;;;;;4.53;3.93;;;;;;;;;;5134180;28;20473;-65
2022/06/19 00:09:12;;;;;;;9.80;3.10;;;;;;;;;;5133787;28;20473;-66
2022/06/19 00:11:40;;;;;;;3.63;3.03;;;;;;;;;;5136644;27;20788;-66
2022/06/19 00:14:09;;;;;;;3.80;3.00;;;;;;;;;;5138119;27;20436;-65
2022/06/19 00:16:36;;;;;;;5.30;3.20;;;;;;;;;;5138070;27;20453;-66
2022/06/19 00:19:05;;;;;;;4.10;2.97;;;;;;;;;;5137782;27;20435;-66
2022/06/19 00:21:32;;;;;;;6.00;4.27;;;;;;;;;;5138741;27;20445;-67
2022/06/19 00:23:59;;;;;;;4.70;3.20;;;;;;;;;;5138024;27;20482;-66
2022/06/19 00:26:27;;;;;;;2.90;2.70;;;;;;;;;;5137728;27;20477;-66
2022/06/19 00:28:56;;;;;;;3.07;2.67;;;;;;;;;;5137883;27;20514;-65
2022/06/19 00:31:26;;;;;;;6.57;2.90;;;;;;;;;;5137594;27;20521;-65
2022/06/19 00:33:54;;;;;;;8.13;3.30;;;;;;;;;;5137537;27;20429;-66
2022/06/19 00:36:21;;;;;;;5.10;3.53;;;;;;;;;;5137883;27;20533;-66
2022/06/19 00:38:48;;;;;;;8.20;2.70;;;;;;;;;;5137399;27;20930;-66
2022/06/19 00:41:16;;;;;;;3.80;3.10;;;;;;;;;;5137945;27;20867;-66
2022/06/19 00:43:59;;;;;;;5.30;3.50;;;;;;;;;;5137392;27;20524;-66
2022/06/19 00:46:42;;;;;;;6.63;3.00;;;;;;;;;;5137522;27;20561;-66
2022/06/19 00:49:12;;;;;;;4.13;3.17;;;;;;;;;;5136997;27;20534;-65
2022/06/19 00:51:39;;;;;;;5.60;3.00;;;;;;;;;;5137956;27;20438;-67
2022/06/19 00:54:08;;;;;;;5.30;3.17;;;;;;;;;;5137061;27;20441;-67
2022/06/19 00:56:35;;;;;;;4.83;3.30;;;;;;;;;;5137628;27;20521;-66
2022/06/19 00:59:03;;;;;;;4.57;3.73;;;;;;;;;;5137400;27;20438;-66
2022/06/19 01:01:30;;;;;;;5.20;2.67;;;;;;;;;;5137053;27;20443;-66
2022/06/19 01:04:01;;;;;;;3.63;2.80;;;;;;;;;;5137309;27;20883;-65
2022/06/19 01:06:29;;;;;;;3.50;2.70;;;;;;;;;;5137185;27;20467;-66
2022/06/19 01:08:57;;;;;;;4.03;3.23;;;;;;;;;;5136982;27;20545;-66
2022/06/19 01:11:25;;;;;;;6.13;3.20;;;;;;;;;;5136759;27;20441;-67
2022/06/19 01:13:53;;;;;;;3.70;2.90;;;;;;;;;;5136837;27;20530;-66
2022/06/19 01:16:20;;;;;;;4.10;2.90;;;;;;;;;;5136982;27;20471;-66
2022/06/19 01:18:47;;;;;;;3.27;2.77;;;;;;;;;;5137454;27;20534;-66
2022/06/19 01:21:24;;;;;;;2.87;2.63;;;;;;;;;;5136938;27;20883;-66
2022/06/19 01:23:56;;;;;;;3.60;2.67;;;;;;;;;;5137252;27;20475;-66
2022/06/19 01:26:25;;;;;;;4.03;2.50;;;;;;;;;;5136640;27;20476;-67
2022/06/19 01:28:55;;;;;;;3.40;2.80;;;;;;;;;;5136996;27;20471;-66
2022/06/19 01:31:24;;;;;;;4.60;2.80;;;;;;;;;;5136422;27;20446;-66
2022/06/19 01:33:54;;;;;;;4.67;2.40;;;;;;;;;;5136467;27;20445;-67
2022/06/19 01:36:23;;;;;;;4.57;2.40;;;;;;;;;;5136609;27;20529;-66
2022/06/19 01:38:51;;;;;;;3.60;2.43;;;;;;;;;;5136675;27;20497;-66
2022/06/19 01:41:21;;;;;;;6.30;2.73;;;;;;;;;;5136509;27;20521;-66
2022/06/19 01:43:50;;;;;;;3.93;2.60;;;;;;;;;;5136817;27;20529;-66
2022/06/19 01:46:18;;;;;;;3.07;2.83;;;;;;;;;;5136379;27;20981;-66
2022/06/19 01:48:46;;;;;;;6.33;3.53;;;;;;;;;;5136804;27;20438;-66
2022/06/19 01:51:13;;;;;;;2.97;2.53;;;;;;;;;;5136312;27;20478;-66
2022/06/19 01:53:42;;;;;;;5.50;2.80;;;;;;;;;;5136117;27;20440;-66
2022/06/19 01:56:11;;;;;;;2.70;2.50;;;;;;;;;;5136230;27;20449;-66
2022/06/19 01:58:40;;;;;;;7.00;2.43;;;;;;;;;;5135965;27;20521;-66
2022/06/19 02:01:10;;;;;;;4.83;2.77;;;;;;;;;;5136367;27;20435;-67
2022/06/19 02:03:39;;;;;;;7.00;3.07;;;;;;;;;;5136258;27;20970;-67
2022/06/19 02:06:06;;;;;;;7.20;2.97;;;;;;;;;;5135929;27;20434;-66
2022/06/19 02:08:35;;;;;;;8.87;3.03;;;;;;;;;;5136129;27;20438;-66
2022/06/19 02:11:03;;;;;;;11.83;3.50;;;;;;;;;;5135756;27;20811;-66
2022/06/19 02:13:32;;;;;;;10.43;3.10;;;;;;;;;;5135976;27;20475;-67
2022/06/19 02:16:00;;;;;;;8.27;2.80;;;;;;;;;;5135533;27;20497;-66
2022/06/19 02:18:29;;;;;;;6.23;3.33;;;;;;;;;;5135648;27;20443;-66
2022/06/19 02:20:57;;;;;;;7.83;3.30;;;;;;;;;;5135427;27;20438;-66
2022/06/19 02:23:27;;;;;;;4.83;2.70;;;;;;;;;;5135545;27;20438;-66
2022/06/19 02:25:55;;;;;;;10.83;3.20;;;;;;;;;;5135779;27;20434;-66
2022/06/19 02:28:22;;;;;;;6.40;2.67;;;;;;;;;;5135573;27;20550;-66
2022/06/19 02:30:50;;;;;;;5.90;3.40;;;;;;;;;;5135550;27;20446;-65
2022/06/19 02:33:19;;;;;;;11.20;3.33;;;;;;;;;;5134993;27;20438;-67
2022/06/19 02:35:48;;;;;;;7.50;3.37;;;;;;;;;;5135250;27;20535;-67
2022/06/19 02:38:18;;;;;;;12.07;3.10;;;;;;;;;;5135797;27;20442;-66
2022/06/19 02:40:51;;;;;;;8.67;2.97;;;;;;;;;;5135694;27;20446;-67
2022/06/19 02:43:21;;;;;;;7.70;2.80;;;;;;;;;;5135524;27;20459;-66
2022/06/19 02:45:48;;;;;;;9.03;3.83;;;;;;;;;;5135554;27;20430;-66
2022/06/19 02:48:19;;;;;;;6.47;3.50;;;;;;;;;;5135553;27;20568;-66
2022/06/19 02:50:48;;;;;;;11.00;4.00;;;;;;;;;;5134873;27;20498;-66
2022/06/19 02:53:16;;;;;;;14.00;3.60;;;;;;;;;;5135167;27;20469;-66
2022/06/19 02:55:43;;;;;;;8.87;3.10;;;;;;;;;;5134741;27;20435;-66
2022/06/19 02:58:11;;;;;;;8.93;3.17;;;;;;;;;;5135142;27;20480;-67
2022/06/19 03:00:38;;;;;;;7.70;3.27;;;;;;;;;;5135250;27;20473;-66
2022/06/19 03:03:07;;;;;;;8.27;2.97;;;;;;;;;;5134690;27;20517;-67
2022/06/19 03:05:34;;;;;;;11.00;3.60;;;;;;;;;;5134963;27;20478;-66
2022/06/19 03:08:03;;;;;;;10.60;3.90;;;;;;;;;;5134504;27;20564;-67
2022/06/19 03:10:31;;;;;;;6.87;3.37;;;;;;;;;;5134620;27;20445;-66
2022/06/19 03:12:59;;;;;;;12.60;3.77;;;;;;;;;;5134888;27;20442;-67
2022/06/19 03:15:26;;;;;;;7.60;3.67;;;;;;;;;;5134544;27;20441;-66
2022/06/19 03:17:53;;;;;;;10.70;3.53;;;;;;;;;;5135177;27;20856;-67
2022/06/19 03:20:22;;;;;;;6.23;3.23;;;;;;;;;;5135053;27;20444;-67
2022/06/19 03:22:50;;;;;;;9.77;3.20;;;;;;;;;;5134696;27;20469;-66
2022/06/19 03:25:18;;;;;;;13.70;3.60;;;;;;;;;;5134773;27;20855;-66
2022/06/19 03:27:46;;;;;;;15.13;4.00;;;;;;;;;;5134369;27;20838;-67
2022/06/19 03:30:14;;;;;;;5.87;2.60;;;;;;;;;;5134663;27;20450;-66
2022/06/19 03:32:41;;;;;;;8.83;3.07;;;;;;;;;;5134700;27;20433;-66
2022/06/19 03:35:08;;;;;;;8.13;3.03;;;;;;;;;;5134314;27;20524;-66
2022/06/19 03:37:35;;;;;;;7.90;2.90;;;;;;;;;;5134698;27;20491;-68
2022/06/19 03:40:03;;;;;;;11.67;3.20;;;;;;;;;;5134264;28;20530;-67
2022/06/19 03:42:31;;;;;;;9.37;3.20;;;;;;;;;;5134164;28;20513;-67
2022/06/19 03:44:59;;;;;;;5.00;2.70;;;;;;;;;;5134139;27;20448;-67
2022/06/19 03:47:27;;;;;;;10.87;3.40;;;;;;;;;;5137543;27;20489;-67
2022/06/19 03:49:54;;;;;;;9.13;3.33;;;;;;;;;;5137530;27;20842;-67
2022/06/19 03:52:22;;;;;;;9.80;2.80;;;;;;;;;;5138401;27;20446;-68
2022/06/19 03:54:49;;;;;;;6.30;3.20;;;;;;;;;;5138205;27;20524;-66
2022/06/19 03:57:16;;;;;;;8.10;3.17;;;;;;;;;;5138621;27;20796;-68
2022/06/19 03:59:45;;;;;;;8.00;3.27;;;;;;;;;;5135745;27;21143;-67
2022/06/19 04:02:12;;;;;;;14.77;3.90;;;;;;;;;;5117471;28;20474;-67
2022/06/19 04:04:40;;;;;;;8.37;2.70;;;;;;;;;;5117556;28;20445;-66
2022/06/19 04:07:07;;;;;;;11.83;3.33;;;;;;;;;;5117635;28;20477;-67
2022/06/19 04:09:35;;;;;;;9.27;3.30;;;;;;;;;;5117739;28;20534;-67
2022/06/19 04:12:02;;;;;;;16.03;4.33;;;;;;;;;;5117531;28;20527;-67
2022/06/19 04:14:29;;;;;;;8.90;3.83;;;;;;;;;;5117657;28;20460;-67
2022/06/19 04:16:58;;;;;;;9.60;4.13;;;;;;;;;;5117411;28;20451;-66
2022/06/19 04:19:27;;;;;;;8.07;2.87;;;;;;;;;;5117258;28;20443;-66
2022/06/19 04:21:54;;;;;;;10.40;3.57;;;;;;;;;;5116957;28;20453;-67
2022/06/19 04:24:21;;;;;;;13.63;3.70;;;;;;;;;;5117543;28;20519;-67
2022/06/19 04:26:48;;;;;;;19.37;7.03;;;;;;;;;;5117033;28;20443;-66
2022/06/19 04:29:17;;;;;;;10.57;3.50;;;;;;;;;;5117266;28;20529;-66
2022/06/19 04:31:44;;;;;;;19.10;3.50;;;;;;;;;;5117252;28;20449;-66
2022/06/19 04:34:13;;;;;;;11.40;3.67;;;;;;;;;;5116888;28;20438;-67
2022/06/19 04:36:40;;;;;;;16.17;3.20;;;;;;;;;;5117216;28;20439;-67
2022/06/19 04:39:08;;;;;;;6.10;2.67;;;;;;;;;;5117105;28;20863;-67
2022/06/19 04:41:36;;;;;;;11.10;3.63;;;;;;;;;;5117235;28;20447;-67
2022/06/19 04:44:05;;;;;;;8.67;2.53;;;;;;;;;;5116925;28;20440;-67
2022/06/19 04:46:32;;;;;;;11.57;3.87;;;;;;;;;;5116961;28;20443;-67
2022/06/19 04:48:59;;;;;;;15.17;3.90;;;;;;;;;;5117002;28;20903;-67
2022/06/19 04:51:28;;;;;;;9.97;2.93;;;;;;;;;;5117172;28;20464;-66
2022/06/19 04:53:55;;;;;;;13.33;3.90;;;;;;;;;;5116757;28;20803;-66
2022/06/19 04:56:26;;;;;;;12.83;3.20;;;;;;;;;;5116594;28;20439;-67
2022/06/19 04:58:53;;;;;;;16.13;3.93;;;;;;;;;;5116895;28;20520;-66
2022/06/19 05:01:23;;;;;;;8.23;2.70;;;;;;;;;;5116777;28;20543;-66
2022/06/19 05:03:50;;;;;;;9.10;2.97;;;;;;;;;;5116623;28;20440;-67
2022/06/19 05:06:17;;;;;;;15.67;3.37;;;;;;;;;;5116768;28;20519;-67
2022/06/19 05:08:46;;;;;;;10.03;3.27;;;;;;;;;;5116531;28;20478;-67
2022/06/19 05:11:13;;;;;;;12.07;3.50;;;;;;;;;;5116930;28;20532;-67
2022/06/19 05:13:41;;;;;;;11.33;4.03;;;;;;;;;;5116448;28;20530;-67
2022/06/19 05:16:09;;;;;;;11.47;2.87;;;;;;;;;;5116427;28;20434;-68
2022/06/19 05:18:37;;;;;;;10.50;3.37;;;;;;;;;;5116531;28;20783;-67
2022/06/19 05:21:05;;;;;;;9.20;3.50;;;;;;;;;;5116423;28;20439;-67
2022/06/19 05:23:32;;;;;;;11.93;2.80;;;;;;;;;;5116276;28;20433;-67
2022/06/19 05:26:02;;;;;;;14.10;3.03;;;;;;;;;;5116218;28;20434;-67
2022/06/19 05:28:30;;;;;;;15.30;3.67;;;;;;;;;;5115741;28;20483;-67
2022/06/19 05:30:58;;;;;;;12.73;3.17;;;;;;;;;;5115855;28;20439;-67
2022/06/19 05:33:25;;;;;;;8.47;3.20;;;;;;;;;;5116044;28;20447;-67
2022/06/19 05:35:53;;;;;;;15.17;3.87;;;;;;;;;;5116108;28;20789;-67
2022/06/19 05:38:20;;;;;;;11.57;3.13;;;;;;;;;;5116246;28;20521;-68
2022/06/19 05:40:48;;;;;;;13.73;4.20;;;;;;;;;;5116086;28;20785;-67
2022/06/19 05:43:16;;;;;;;13.67;3.70;;;;;;;;;;5115583;28;20952;-66
2022/06/19 05:45:50;;;;;;;7.43;3.40;;;;;;;;;;5115600;28;20446;-67
2022/06/19 05:48:17;;;;;;;12.13;3.50;;;;;;;;;;5115424;28;20479;-73
2022/06/19 05:50:44;;;;;;;14.20;2.87;;;;;;;;;;5115572;28;20470;-65
2022/06/19 05:53:11;;;;;;;9.37;3.67;;;;;;;;;;5115319;28;20443;-66
2022/06/19 05:55:39;;;;;;;8.13;3.43;;;;;;;;;;5115773;28;20522;-65
2022/06/19 05:58:06;;;;;;;13.53;4.43;;;;;;;;;;5115539;28;20534;-66
2022/06/19 06:00:35;;;;;;;11.60;3.10;;;;;;;;;;5115633;28;20458;-69
2022/06/19 06:03:02;;;;;;;9.73;3.13;;;;;;;;;;5115616;28;20435;-67
2022/06/19 06:05:29;;;;;;;8.20;2.83;;;;;;;;;;5115426;28;20440;-65
2022/06/19 06:07:56;;;;;;;14.73;3.53;;;;;;;;;;5114785;28;20574;-65
2022/06/19 06:10:24;;;;;;;9.63;3.70;;;;;;;;;;5114767;28;20438;-66
2022/06/19 06:12:51;;;;;;;12.80;3.07;;;;;;;;;;5115107;28;21010;-66
2022/06/19 06:15:18;;;;;;;10.67;3.20;;;;;;;;;;5115341;28;20529;-66
2022/06/19 06:17:47;;;;;;;13.47;3.40;;;;;;;;;;5115122;28;20458;-66
2022/06/19 06:20:14;;;;;;;11.03;2.90;;;;;;;;;;5115049;28;20440;-66
2022/06/19 06:22:41;;;;;;;7.00;2.83;;;;;;;;;;5114876;28;20443;-66
2022/06/19 06:25:09;;;;;;;10.10;3.17;;;;;;;;;;5115088;28;20441;-66
2022/06/19 06:27:37;;;;;;;11.03;3.30;;;;;;;;;;5115067;28;20908;-66
2022/06/19 06:30:04;;;;;;;9.87;3.10;;;;;;;;;;5114495;28;20962;-66
2022/06/19 06:32:31;;;;;;;7.17;2.37;;;;;;;;;;5115103;28;20522;-66
2022/06/19 06:35:00;;;;;;;11.50;3.30;;;;;;;;;;5114574;28;20449;-66
2022/06/19 06:37:27;;;;;;;7.83;2.90;;;;;;;;;;5114602;28;20525;-66
2022/06/19 06:39:54;;;;;;;15.83;3.03;;;;;;;;;;5114778;28;20849;-66
2022/06/19 06:42:21;;;;;;;12.50;3.13;;;;;;;;;;5114810;28;20519;-65
2022/06/19 06:44:49;;;;;;;9.67;3.60;;;;;;;;;;5114352;28;20447;-66
2022/06/19 06:47:16;;;;;;;11.63;2.70;;;;;;;;;;5114983;28;20479;-66
2022/06/19 06:49:43;;;;;;;7.93;2.80;;;;;;;;;;5114215;28;20499;-66
2022/06/19 06:52:12;;;;;;;10.60;2.80;;;;;;;;;;5114662;28;20971;-65
2022/06/19 06:54:39;;;;;;;8.80;3.93;;;;;;;;;;5114404;28;20529;-66
2022/06/19 06:57:07;;;;;;;10.87;3.00;;;;;;;;;;5114196;28;20972;-66
2022/06/19 06:59:34;;;;;;;9.87;3.20;;;;;;;;;;5113956;28;20447;-65
2022/06/19 07:02:01;;;;;;;10.40;3.10;;;;;;;;;;5114093;28;20431;-65
2022/06/19 07:04:29;;;;;;;12.23;3.00;;;;;;;;;;5114358;28;20467;-66
2022/06/19 07:06:56;;;;;;;8.40;3.43;;;;;;;;;;5114346;28;20449;-66
2022/06/19 07:09:25;;;;;;;6.10;2.70;;;;;;;;;;5114447;28;20833;-67
2022/06/19 07:11:52;;;;;;;14.00;2.97;;;;;;;;;;5113892;28;20458;-65
2022/06/19 07:14:20;;;;;;;5.97;2.73;;;;;;;;;;5114159;28;21073;-65
2022/06/19 07:16:47;;;;;;;9.27;2.90;;;;;;;;;;5114182;28;20439;-66
2022/06/19 07:19:14;;;;;;;8.03;2.70;;;;;;;;;;5114143;28;20526;-66
2022/06/19 07:21:41;;;;;;;14.80;2.97;;;;;;;;;;5113507;28;20439;-66
2022/06/19 07:24:08;;;;;;;10.27;3.10;;;;;;;;;;5113771;28;20445;-65
2022/06/19 07:26:37;;;;;;;6.40;2.53;;;;;;;;;;5113677;28;20454;-66
2022/06/19 07:29:05;;;;;;;9.53;3.20;;;;;;;;;;5114059;28;20478;-66
2022/06/19 07:31:32;;;;;;;11.37;3.87;;;;;;;;;;5113622;28;20497;-66
2022/06/19 07:33:59;;;;;;;8.60;3.07;;;;;;;;;;5113857;28;20437;-66
2022/06/19 07:36:27;;;;;;;12.03;3.20;;;;;;;;;;5113480;28;20432;-66
2022/06/19 07:38:54;;;;;;;12.73;2.97;;;;;;;;;;5114016;28;20440;-66
2022/06/19 07:41:21;;;;;;;10.63;3.30;;;;;;;;;;5113247;28;20531;-66
2022/06/19 07:43:51;;;;;;;12.03;3.30;;;;;;;;;;5114385;28;20435;-64
2022/06/19 07:46:18;;;;;;;8.17;3.40;;;;;;;;;;5113753;28;20441;-64
2022/06/19 07:51:31;;;;;;;11.20;3.00;;;;;;;;;;5113437;28;20452;-64
2022/06/19 07:53:58;;;;;;;5.93;2.87;;;;;;;;;;5113357;28;20446;-64
2022/06/19 07:56:25;;;;;;;6.60;2.90;;;;;;;;;;5113894;28;20501;-64
2022/06/19 07:58:54;;;;;;;11.70;3.00;;;;;;;;;;5114572;28;20495;-64
2022/06/19 08:01:21;;;;;;;7.03;2.73;;;;;;;;;;5113407;28;20879;-64
2022/06/19 08:03:48;;;;;;;13.87;3.00;;;;;;;;;;5113270;28;20527;-64
2022/06/19 08:06:19;;;;;;;7.60;3.20;;;;;;;;;;5113461;28;20498;-63
2022/06/19 08:08:47;;;;;;;11.00;3.03;;;;;;;;;;5113723;28;20867;-64
2022/06/19 08:11:14;;;;;;;7.57;2.87;;;;;;;;;;5113562;28;20433;-65
2022/06/19 08:13:41;;;;;;;12.53;3.10;;;;;;;;;;5113307;28;20879;-65
2022/06/19 08:16:10;;;;;;;10.20;3.03;;;;;;;;;;5113319;28;20440;-63
2022/06/19 08:18:38;;;;;;;6.13;2.90;;;;;;;;;;5113398;28;20456;-64
2022/06/19 08:21:05;;;;;;;6.20;3.10;;;;;;;;;;5113518;28;20440;-63
2022/06/19 08:23:33;;;;;;;8.23;3.13;;;;;;;;;;5114150;28;20500;-64
2022/06/19 08:26:00;;;;;;;7.53;3.07;;;;;;;;;;5113509;28;20432;-64
2022/06/19 08:28:30;;;;;;;12.20;3.23;;;;;;;;;;5113181;28;20473;-64
2022/06/19 08:30:58;;;;;;;8.50;3.73;;;;;;;;;;5114122;28;20776;-64
2022/06/19 08:33:26;;;;;;;7.30;2.77;;;;;;;;;;5116597;28;20539;-65
2022/06/19 08:35:55;;;;;;;7.00;3.07;;;;;;;;;;5117440;28;20484;-64
2022/06/19 08:38:24;;;;;;;7.87;2.80;;;;;;;;;;5117387;28;20803;-65
2022/06/19 08:41:03;;;;;;;11.67;2.80;;;;;;;;;;5116842;28;20451;-64
2022/06/19 08:43:37;;;;;;;11.00;3.33;;;;;;;;;;5117410;28;20421;-64
2022/06/19 08:46:12;;;;;;;10.30;3.73;;;;;;;;;;5116842;28;20509;-64
2022/06/19 08:49:00;;;;;;;12.90;2.87;;;;;;;;;;5117799;28;20576;-64
2022/06/19 08:51:34;;;;;;;12.00;3.20;;;;;;;;;;5091666;28;20488;-64
2022/06/19 08:54:09;;;;;;;13.43;4.50;;;;;;;;;;5097093;28;20519;-64
2022/06/19 08:56:40;;;;;;;9.63;3.67;;;;;;;;;;5096518;28;20514;-64
2022/06/19 08:59:13;;;;;;;12.87;3.70;;;;;;;;;;5097387;28;20529;-64
2022/06/19 09:01:42;;;;;;;14.67;4.70;;;;;;;;;;5096847;28;20434;-64
2022/06/19 09:07:06;;;;;;;15.60;4.30;;;;;;;;;;5116492;28;20902;-63
2022/06/19 09:09:51;;;;;;;9.40;3.80;;;;;;;;;;5116752;28;20475;-64
2022/06/19 09:12:24;;;;;;;12.57;3.60;;;;;;;;;;5115822;28;20855;-64
2022/06/19 09:14:57;;;;;;;12.27;3.50;;;;;;;;;;5116220;28;20465;-64
2022/06/19 09:17:27;;;;;;;15.23;3.67;;;;;;;;;;5116797;28;20453;-64
2022/06/19 09:20:02;;;;;;;14.13;3.63;;;;;;;;;;5116170;28;20518;-63
2022/06/19 09:22:44;;;;;;;11.53;3.47;;;;;;;;;;5115919;28;20970;-64
2022/06/19 09:25:24;;;;;;;14.77;4.10;;;;;;;;;;5116399;28;20515;-65
2022/06/19 09:27:55;;;;;;;11.80;3.40;;;;;;;;;;5116559;28;20474;-65
2022/06/19 09:30:25;;;;;;;16.23;4.00;;;;;;;;;;5116338;28;20480;-65
2022/06/19 09:32:55;;;;;;;13.80;3.70;;;;;;;;;;5116420;28;20433;-65
2022/06/19 09:35:24;;;;;;;14.20;3.13;;;;;;;;;;5102252;28;20501;-65
2022/06/19 09:37:56;;;;;;;11.83;3.20;;;;;;;;;;5095761;28;20529;-65
2022/06/19 09:40:25;;;;;;;11.30;3.53;;;;;;;;;;5095319;28;20432;-65
2022/06/19 09:42:56;;;;;;;8.23;3.30;;;;;;;;;;5095476;28;20873;-65
2022/06/19 09:45:25;;;;;;;10.53;4.23;;;;;;;;;;5095684;28;20530;-65
2022/06/19 09:47:55;;;;;;;8.83;3.50;;;;;;;;;;5095096;28;20445;-65
2022/06/19 09:50:25;;;;;;;10.20;3.30;;;;;;;;;;5105779;28;20847;-64
2022/06/19 09:52:57;;;;;;;14.83;3.63;;;;;;;;;;5115341;28;20532;-65
2022/06/19 09:55:26;;;;;;;18.03;4.40;;;;;;;;;;5116244;28;20429;-65
2022/06/19 09:57:57;;;;;;;9.30;3.20;;;;;;;;;;5115214;28;20533;-64
2022/06/19 10:00:25;;;;;;;14.63;3.90;;;;;;;;;;5115147;28;20908;-64
2022/06/19 10:02:54;;;;;;;14.73;5.80;;;;;;;;;;5115365;28;20495;-64
2022/06/19 10:05:27;;;;;;;14.97;3.87;;;;;;;;;;5115127;28;21010;-64
2022/06/19 10:07:58;;;;;;;8.90;3.33;;;;;;;;;;5115517;28;20526;-65
2022/06/19 10:10:28;;;;;;;9.50;3.80;;;;;;;;;;5115249;28;20830;-65
2022/06/19 10:12:57;;;;;;;11.27;3.67;;;;;;;;;;5114949;28;20529;-64
2022/06/19 10:15:29;;;;;;;11.17;3.70;;;;;;;;;;5115546;28;20471;-64
2022/06/19 10:17:58;;;;;;;8.57;3.77;;;;;;;;;;5115206;28;20544;-64
2022/06/19 10:20:30;;;;;;;11.27;3.63;;;;;;;;;;5115128;28;20549;-64
2022/06/19 10:23:03;;;;;;;12.03;3.23;;;;;;;;;;5114762;28;20530;-65
2022/06/19 10:25:41;;;;;;;11.40;3.90;;;;;;;;;;5115201;28;20442;-65
2022/06/19 10:28:16;;;;;;;11.23;4.03;;;;;;;;;;5114652;28;20518;-64
2022/06/19 10:30:49;;;;;;;11.50;3.77;;;;;;;;;;5114952;28;20470;-64
2022/06/19 10:33:22;;;;;;;14.90;3.63;;;;;;;;;;5115148;28;20453;-64
2022/06/19 10:35:51;;;;;;;12.47;3.77;;;;;;;;;;5114577;28;20441;-64
2022/06/19 10:38:29;;;;;;;11.33;3.47;;;;;;;;;;5114414;28;20525;-64
2022/06/19 10:40:58;;;;;;;11.27;3.60;;;;;;;;;;5115456;28;20517;-65
2022/06/19 10:43:31;;;;;;;14.23;4.00;;;;;;;;;;5114420;28;20542;-64
2022/06/19 10:46:01;;;;;;;14.63;3.40;;;;;;;;;;5114655;28;20404;-65
2022/06/19 10:48:29;;;;;;;8.00;3.43;;;;;;;;;;5114672;28;20618;-65
2022/06/19 10:51:04;;;;;;;10.63;3.20;;;;;;;;;;5114265;28;20498;-65
2022/06/19 10:53:46;;;;;;;14.30;3.43;;;;;;;;;;5114892;28;20868;-65
2022/06/19 10:56:18;;;;;;;10.57;2.90;;;;;;;;;;5111212;28;20954;-64
2022/06/19 10:58:45;;;;;;;8.03;2.70;;;;;;;;;;5114524;28;20438;-64
2022/06/19 11:04:06;;;;;;;9.73;3.27;;;;;;;;;;5114232;28;20442;-65
2022/06/19 11:04:08;;;;;;;7.17;3.93;;;;;;;;;;5114434;28;20429;-65
2022/06/19 11:06:36;;;;;;;7.43;3.60;;;;;;;;;;5114800;28;20442;-64
2022/06/19 11:09:05;;;;;;;12.77;4.37;;;;;;;;;;5113842;28;20561;-65
2022/06/19 11:11:36;;;;;;;15.37;3.97;;;;;;;;;;5113975;28;20474;-65
2022/06/19 11:14:06;;;;;;;10.73;3.40;;;;;;;;;;5113981;28;20497;-64
2022/06/19 11:16:34;;;;;;;12.43;3.73;;;;;;;;;;5114125;28;20431;-64
2022/06/19 11:19:02;;;;;;;11.03;4.33;;;;;;;;;;5114288;28;20478;-64
2022/06/19 11:21:31;;;;;;;10.63;4.77;;;;;;;;;;5114373;28;20521;-64
2022/06/19 11:23:59;;;;;;;18.10;4.20;;;;;;;;;;5113649;28;20474;-64
2022/06/19 11:26:28;;;;;;;7.60;3.53;;;;;;;;;;5127116;27;20502;-64
2022/06/19 11:28:58;;;;;;;13.47;4.57;;;;;;;;;;5134453;27;20521;-65
2022/06/19 11:31:27;;;;;;;7.13;3.03;;;;;;;;;;5134759;27;20776;-65
2022/06/19 11:33:56;;;;;;;11.80;3.60;;;;;;;;;;5132736;27;20978;-64
2022/06/19 11:36:28;;;;;;;14.23;4.00;;;;;;;;;;5132623;27;20524;-64
2022/06/19 11:38:55;;;;;;;8.73;3.50;;;;;;;;;;5133571;27;20481;-64
2022/06/19 11:41:30;;;;;;;7.40;3.50;;;;;;;;;;5134188;27;20993;-64
2022/06/19 11:44:04;;;;;;;12.10;3.50;;;;;;;;;;5134103;28;20437;-64
2022/06/19 11:46:31;;;;;;;11.93;3.97;;;;;;;;;;5134874;28;20516;-65
2022/06/19 11:49:17;;;;;;;11.83;3.83;;;;;;;;;;5134237;28;20445;-66
2022/06/19 11:51:45;;;;;;;9.10;3.93;;;;;;;;;;5134125;28;20487;-65
2022/06/19 11:54:15;;;;;;;8.17;3.73;;;;;;;;;;5134027;28;20498;-65
2022/06/19 11:56:42;;;;;;;5.10;3.23;;;;;;;;;;5134418;28;20512;-65
2022/06/19 11:59:22;;;;;;;15.10;2.50;;;;;;;;;;5134080;28;20477;-64
2022/06/19 12:01:49;;;;;;;7.63;2.80;;;;;;;;;;5134702;28;20832;-65
2022/06/19 12:04:22;;;;;;;9.50;2.83;;;;;;;;;;5134205;28;20437;-64
2022/06/19 12:06:51;;;;;;;6.80;2.93;;;;;;;;;;5134590;27;20429;-64
2022/06/19 12:09:26;;;;;;;11.47;2.60;;;;;;;;;;5138203;27;20528;-64
2022/06/19 12:11:58;;;;;;;7.30;3.47;;;;;;;;;;5138629;27;20513;-64
2022/06/19 12:14:30;;;;;;;10.97;3.97;;;;;;;;;;5137939;27;20464;-65
2022/06/19 12:17:12;;;;;;;15.60;3.53;;;;;;;;;;5138371;27;20840;-64
2022/06/19 12:19:39;;;;;;;12.50;3.10;;;;;;;;;;5138094;27;20528;-64
2022/06/19 12:22:07;;;;;;;9.53;3.40;;;;;;;;;;5138130;27;20520;-64
2022/06/19 12:24:40;;;;;;;15.83;3.30;;;;;;;;;;5137671;27;21014;-64
2022/06/19 12:27:11;;;;;;;8.80;3.40;;;;;;;;;;5138450;27;20509;-64
2022/06/19 12:29:43;;;;;;;10.13;3.30;;;;;;;;;;5138389;27;20465;-64
2022/06/19 12:32:14;;;;;;;7.97;3.27;;;;;;;;;;5138434;27;20422;-64
2022/06/19 12:34:43;;;;;;;7.87;3.00;;;;;;;;;;5137689;27;20458;-64
2022/06/19 12:37:17;;;;;;;7.27;2.93;;;;;;;;;;5137951;27;20460;-65
2022/06/19 12:39:44;;;;;;;15.07;4.40;;;;;;;;;;5138062;27;20497;-64
2022/06/19 12:42:15;;;;;;;10.90;3.10;;;;;;;;;;5137861;27;20461;-65
2022/06/19 12:44:53;;;;;;;9.60;3.20;;;;;;;;;;5137475;27;20437;-64
2022/06/19 12:47:22;;;;;;;7.30;3.20;;;;;;;;;;5138371;27;20727;-65
2022/06/19 12:50:16;;;;;;;15.27;3.53;;;;;;;;;;5137510;27;20570;-65
2022/06/19 12:52:47;;;;;;;9.53;3.30;;;;;;;;;;5137394;27;20418;-65
2022/06/19 12:55:20;;;;;;;15.43;3.57;;;;;;;;;;5137383;27;20954;-65
2022/06/19 12:57:56;;;;;;;8.70;3.50;;;;;;;;;;5137432;27;20422;-65
2022/06/19 13:00:35;;;;;;;6.33;2.80;;;;;;;;;;5137100;27;20480;-65
2022/06/19 13:03:17;;;;;;;6.60;2.90;;;;;;;;;;5137494;27;20507;-65
2022/06/19 13:05:51;;;;;;;11.83;3.33;;;;;;;;;;5118006;27;20452;-65
2022/06/19 13:08:24;;;;;;;8.63;3.27;;;;;;;;;;5136844;27;20428;-65
2022/06/19 13:11:00;;;;;;;7.90;3.07;;;;;;;;;;5137361;27;20557;-65
2022/06/19 13:13:37;;;;;;;13.10;3.43;;;;;;;;;;5137150;27;20778;-65
2022/06/19 13:16:12;;;;;;;11.43;3.67;;;;;;;;;;5136673;27;20897;-65
2022/06/19 13:18:49;;;;;;;12.30;2.90;;;;;;;;;;5136832;27;20449;-65
2022/06/19 13:21:21;;;;;;;10.53;4.10;;;;;;;;;;5137333;27;20793;-65
2022/06/19 13:23:53;;;;;;;10.67;3.27;;;;;;;;;;5137078;27;20515;-65
2022/06/19 13:29:16;;;;;;;15.30;6.37;;;;;;;;;;5123015;27;20484;-65
2022/06/19 13:31:47;;;;;;;8.37;3.40;;;;;;;;;;5136335;27;20976;-65
2022/06/19 13:34:31;;;;;;;13.40;3.53;;;;;;;;;;5136581;27;20526;-65
2022/06/19 13:37:02;;;;;;;7.80;3.00;;;;;;;;;;5136781;27;20544;-65
2022/06/19 13:39:35;;;;;;;11.37;2.80;;;;;;;;;;5136285;27;20928;-66
2022/06/19 13:42:13;;;;;;;7.73;2.70;;;;;;;;;;5136369;27;20428;-65
2022/06/19 13:44:48;;;;;;;12.80;3.40;;;;;;;;;;5136516;27;20438;-66
2022/06/19 13:47:21;;;;;;;9.50;3.80;;;;;;;;;;5136656;27;20447;-65
2022/06/19 13:49:51;;;;;;;7.23;2.80;;;;;;;;;;5135678;27;20470;-65
2022/06/19 13:52:39;;;;;;;8.67;2.97;;;;;;;;;;5136277;27;20463;-65
2022/06/19 13:55:24;;;;;;;11.23;2.63;;;;;;;;;;5129889;27;21033;-65
2022/06/19 13:57:54;;;;;;;5.20;2.70;;;;;;;;;;5136155;27;20426;-65
2022/06/19 14:00:29;;;;;;;8.80;3.43;;;;;;;;;;5136065;27;20874;-65
2022/06/19 14:03:14;;;;;;;9.20;2.97;;;;;;;;;;5135979;27;20898;-64
2022/06/19 14:05:44;;;;;;;6.80;3.60;;;;;;;;;;5135336;27;20837;-65
2022/06/19 14:08:15;;;;;;;9.90;3.70;;;;;;;;;;5135880;27;20448;-64
2022/06/19 14:10:45;;;;;;;6.33;2.87;;;;;;;;;;5135601;27;21073;-64
2022/06/19 14:13:23;;;;;;;12.00;3.90;;;;;;;;;;5135826;27;20450;-65
2022/06/19 14:15:55;;;;;;;6.53;3.17;;;;;;;;;;5135471;27;20471;-64
2022/06/19 14:18:34;;;;;;;6.43;2.90;;;;;;;;;;5136740;27;20537;-65
2022/06/19 14:21:08;;;;;;;7.60;2.87;;;;;;;;;;5135901;27;20918;-65
2022/06/19 14:23:39;;;;;;;12.20;4.07;;;;;;;;;;5135671;27;20433;-64
2022/06/19 14:26:11;;;;;;;14.20;3.30;;;;;;;;;;5135627;27;20494;-64
2022/06/19 14:28:44;;;;;;;6.80;3.00;;;;;;;;;;5135777;27;20450;-64
2022/06/19 14:31:14;;;;;;;13.53;3.20;;;;;;;;;;5135066;27;20899;-65
2022/06/19 14:33:47;;;;;;;8.23;2.83;;;;;;;;;;5135059;27;20437;-65
2022/06/19 14:36:26;;;;;;;10.13;3.70;;;;;;;;;;5135566;27;20446;-65
2022/06/19 14:38:55;;;;;;;5.23;2.67;;;;;;;;;;5135181;27;20512;-65
2022/06/19 14:41:27;;;;;;;9.30;3.20;;;;;;;;;;5135058;27;21007;-65
2022/06/19 14:43:57;;;;;;;10.37;3.30;;;;;;;;;;5135202;27;20787;-65
2022/06/19 14:46:45;;;;;;;5.63;3.07;;;;;;;;;;5134839;27;20442;-65
2022/06/19 14:49:30;;;;;;;5.90;2.60;;;;;;;;;;5135181;27;20416;-65
2022/06/19 14:52:03;;;;;;;9.43;4.23;;;;;;;;;;5134637;27;20472;-65
2022/06/19 14:54:39;;;;;;;8.03;3.10;;;;;;;;;;5135116;27;20429;-65
2022/06/19 14:57:17;;;;;;;6.63;3.70;;;;;;;;;;5135025;27;20518;-65
2022/06/19 14:59:50;;;;;;;7.80;2.80;;;;;;;;;;5135133;27;20507;-65
2022/06/19 15:02:18;;;;;;;7.20;2.93;;;;;;;;;;5134874;27;20434;-65